sensor_id;sensor_type;location;lat;lon;timestamp;temperature;humidity
51996;DHT22;38010;53.264;6.592;2023-09-18T00:00:05;19.70;99.90
51996;DHT22;38010;53.264;6.592;2023-09-18T00:02:34;19.70;99.90
51996;DHT22;38010;53.264;6.592;2023-09-18T00:05:00;19.70;99.90
51996;DHT22;38010;53.264;6.592;2023-09-18T00:07:26;19.70;99.90
51996;DHT22;38010;53.264;6.592;2023-09-18T00:09:51;19.70;99.90
51996;DHT22;38010;53.264;6.592;2023-09-18T00:12:18;19.70;99.90
51996;DHT22;38010;53.264;6.592;2023-09-18T00:14:43;19.70;99.90
51996;DHT22;38010;53.264;6.592;2023-09-18T00:17:12;19.70;99.90
51996;DHT22;38010;53.264;6.592;2023-09-18T00:19:38;19.70;99.90
51996;DHT22;38010;53.264;6.592;2023-09-18T00:22:04;19.70;99.90
51996;DHT22;38010;53.264;6.592;2023-09-18T00:24:30;19.70;99.90
51996;DHT22;38010;53.264;6.592;2023-09-18T00:26:55;19.70;99.90
51996;DHT22;38010;53.264;6.592;2023-09-18T00:29:21;19.70;99.90
51996;DHT22;38010;53.264;6.592;2023-09-18T00:31:47;19.60;99.90
51996;DHT22;38010;53.264;6.592;2023-09-18T00:34:12;19.70;99.90
51996;DHT22;38010;53.264;6.592;2023-09-18T00:36:38;19.70;99.90
51996;DHT22;38010;53.264;6.592;2023-09-18T00:39:04;19.60;99.90
51996;DHT22;38010;53.264;6.592;2023-09-18T00:41:30;19.60;99.90
51996;DHT22;38010;53.264;6.592;2023-09-18T00:43:55;19.70;99.90
51996;DHT22;38010;53.264;6.592;2023-09-18T00:46:22;19.60;99.90
51996;DHT22;38010;53.264;6.592;2023-09-18T00:48:48;19.60;99.90
51996;DHT22;38010;53.264;6.592;2023-09-18T00:51:15;19.60;99.90
51996;DHT22;38010;53.264;6.592;2023-09-18T00:53:46;19.60;99.90
51996;DHT22;38010;53.264;6.592;2023-09-18T00:56:16;19.60;99.90
51996;DHT22;38010;53.264;6.592;2023-09-18T00:58:42;19.60;99.90
51996;DHT22;38010;53.264;6.592;2023-09-18T01:01:10;19.60;99.90
51996;DHT22;38010;53.264;6.592;2023-09-18T01:03:36;19.60;99.90
51996;DHT22;38010;53.264;6.592;2023-09-18T01:06:02;19.60;99.90
51996;DHT22;38010;53.264;6.592;2023-09-18T01:08:29;19.60;99.90
51996;DHT22;38010;53.264;6.592;2023-09-18T01:11:16;19.60;99.90
51996;DHT22;38010;53.264;6.592;2023-09-18T01:14:09;19.60;99.90
51996;DHT22;38010;53.264;6.592;2023-09-18T01:16:58;19.60;99.90
51996;DHT22;38010;53.264;6.592;2023-09-18T01:22:07;19.60;99.90
51996;DHT22;38010;53.264;6.592;2023-09-18T01:24:37;19.60;99.90
51996;DHT22;38010;53.264;6.592;2023-09-18T01:27:04;19.60;99.90
51996;DHT22;38010;53.264;6.592;2023-09-18T01:29:31;19.60;99.90
51996;DHT22;38010;53.264;6.592;2023-09-18T01:31:57;19.60;99.90
51996;DHT22;38010;53.264;6.592;2023-09-18T01:34:28;19.60;99.90
51996;DHT22;38010;53.264;6.592;2023-09-18T01:36:58;19.60;99.90
51996;DHT22;38010;53.264;6.592;2023-09-18T01:39:24;19.60;99.90
51996;DHT22;38010;53.264;6.592;2023-09-18T01:41:52;19.60;99.90
51996;DHT22;38010;53.264;6.592;2023-09-18T01:44:18;19.60;99.90
51996;DHT22;38010;53.264;6.592;2023-09-18T01:46:44;19.60;99.90
51996;DHT22;38010;53.264;6.592;2023-09-18T01:49:10;19.60;99.90
51996;DHT22;38010;53.264;6.592;2023-09-18T01:51:36;19.60;99.90
51996;DHT22;38010;53.264;6.592;2023-09-18T01:54:02;19.60;99.90
51996;DHT22;38010;53.264;6.592;2023-09-18T01:56:29;19.60;99.90
51996;DHT22;38010;53.264;6.592;2023-09-18T01:58:54;19.60;99.90
51996;DHT22;38010;53.264;6.592;2023-09-18T02:01:20;19.60;99.90
51996;DHT22;38010;53.264;6.592;2023-09-18T02:03:45;19.60;99.90
51996;DHT22;38010;53.264;6.592;2023-09-18T02:06:12;19.60;99.90
51996;DHT22;38010;53.264;6.592;2023-09-18T02:08:38;19.60;99.90
51996;DHT22;38010;53.264;6.592;2023-09-18T02:11:04;19.60;99.90
51996;DHT22;38010;53.264;6.592;2023-09-18T02:13:30;19.60;99.90
51996;DHT22;38010;53.264;6.592;2023-09-18T02:15:56;19.60;99.90
51996;DHT22;38010;53.264;6.592;2023-09-18T02:18:22;19.60;99.90
51996;DHT22;38010;53.264;6.592;2023-09-18T02:20:48;19.60;99.90
51996;DHT22;38010;53.264;6.592;2023-09-18T02:23:15;19.60;99.90
51996;DHT22;38010;53.264;6.592;2023-09-18T02:25:41;19.60;99.90
51996;DHT22;38010;53.264;6.592;2023-09-18T02:28:07;19.60;99.90
51996;DHT22;38010;53.264;6.592;2023-09-18T02:30:33;19.60;99.90
51996;DHT22;38010;53.264;6.592;2023-09-18T02:32:58;19.60;99.90
51996;DHT22;38010;53.264;6.592;2023-09-18T02:35:25;19.60;99.90
51996;DHT22;38010;53.264;6.592;2023-09-18T02:37:51;19.60;99.90
51996;DHT22;38010;53.264;6.592;2023-09-18T02:40:17;19.60;99.90
51996;DHT22;38010;53.264;6.592;2023-09-18T02:42:43;19.60;99.90
51996;DHT22;38010;53.264;6.592;2023-09-18T02:45:09;19.60;99.90
51996;DHT22;38010;53.264;6.592;2023-09-18T02:47:35;19.60;99.90
51996;DHT22;38010;53.264;6.592;2023-09-18T02:50:04;19.60;99.90
51996;DHT22;38010;53.264;6.592;2023-09-18T02:52:31;19.60;99.90
51996;DHT22;38010;53.264;6.592;2023-09-18T02:54:56;19.60;99.90
51996;DHT22;38010;53.264;6.592;2023-09-18T02:57:22;19.60;99.90
51996;DHT22;38010;53.264;6.592;2023-09-18T02:59:48;19.60;99.90
51996;DHT22;38010;53.264;6.592;2023-09-18T03:02:14;19.60;99.90
51996;DHT22;38010;53.264;6.592;2023-09-18T03:04:39;19.60;99.90
51996;DHT22;38010;53.264;6.592;2023-09-18T03:07:05;19.60;99.90
51996;DHT22;38010;53.264;6.592;2023-09-18T03:09:31;19.60;99.90
51996;DHT22;38010;53.264;6.592;2023-09-18T03:11:56;19.60;99.90
51996;DHT22;38010;53.264;6.592;2023-09-18T03:14:22;19.60;99.90
51996;DHT22;38010;53.264;6.592;2023-09-18T03:16:48;19.60;99.90
51996;DHT22;38010;53.264;6.592;2023-09-18T03:19:14;19.60;99.90
51996;DHT22;38010;53.264;6.592;2023-09-18T03:21:39;19.60;99.90
51996;DHT22;38010;53.264;6.592;2023-09-18T03:24:05;19.50;99.90
51996;DHT22;38010;53.264;6.592;2023-09-18T03:26:31;19.60;99.90
51996;DHT22;38010;53.264;6.592;2023-09-18T03:28:57;19.60;99.90
51996;DHT22;38010;53.264;6.592;2023-09-18T03:31:23;19.60;99.90
51996;DHT22;38010;53.264;6.592;2023-09-18T03:33:48;19.60;99.90
51996;DHT22;38010;53.264;6.592;2023-09-18T03:36:14;19.60;99.90
51996;DHT22;38010;53.264;6.592;2023-09-18T03:38:40;19.50;99.90
51996;DHT22;38010;53.264;6.592;2023-09-18T03:41:06;19.60;99.90
51996;DHT22;38010;53.264;6.592;2023-09-18T03:43:31;19.60;99.90
51996;DHT22;38010;53.264;6.592;2023-09-18T03:46:07;19.50;99.90
51996;DHT22;38010;53.264;6.592;2023-09-18T03:48:33;19.50;99.90
51996;DHT22;38010;53.264;6.592;2023-09-18T03:51:06;19.60;99.90
51996;DHT22;38010;53.264;6.592;2023-09-18T03:53:33;19.50;99.90
51996;DHT22;38010;53.264;6.592;2023-09-18T03:55:59;19.50;99.90
51996;DHT22;38010;53.264;6.592;2023-09-18T03:58:25;19.60;99.90
51996;DHT22;38010;53.264;6.592;2023-09-18T04:00:50;19.50;99.90
51996;DHT22;38010;53.264;6.592;2023-09-18T04:03:17;19.50;99.90
51996;DHT22;38010;53.264;6.592;2023-09-18T04:05:43;19.50;99.90
51996;DHT22;38010;53.264;6.592;2023-09-18T04:08:08;19.50;99.90
51996;DHT22;38010;53.264;6.592;2023-09-18T04:10:34;19.50;99.90
51996;DHT22;38010;53.264;6.592;2023-09-18T04:13:00;19.50;99.90
51996;DHT22;38010;53.264;6.592;2023-09-18T04:15:26;19.50;99.90
51996;DHT22;38010;53.264;6.592;2023-09-18T04:17:53;19.50;99.90
51996;DHT22;38010;53.264;6.592;2023-09-18T04:20:19;19.50;99.90
51996;DHT22;38010;53.264;6.592;2023-09-18T04:22:46;19.50;99.90
51996;DHT22;38010;53.264;6.592;2023-09-18T04:25:15;19.50;99.90
51996;DHT22;38010;53.264;6.592;2023-09-18T04:27:41;19.50;99.90
51996;DHT22;38010;53.264;6.592;2023-09-18T04:30:08;19.50;99.90
51996;DHT22;38010;53.264;6.592;2023-09-18T04:32:37;19.50;99.90
51996;DHT22;38010;53.264;6.592;2023-09-18T04:35:03;19.50;99.90
51996;DHT22;38010;53.264;6.592;2023-09-18T04:37:30;19.50;99.90
51996;DHT22;38010;53.264;6.592;2023-09-18T04:39:57;19.50;99.90
51996;DHT22;38010;53.264;6.592;2023-09-18T04:42:23;19.50;99.90
51996;DHT22;38010;53.264;6.592;2023-09-18T04:44:49;19.50;99.90
51996;DHT22;38010;53.264;6.592;2023-09-18T04:47:14;19.50;99.90
51996;DHT22;38010;53.264;6.592;2023-09-18T04:49:40;19.50;99.90
51996;DHT22;38010;53.264;6.592;2023-09-18T04:52:06;19.50;99.90
51996;DHT22;38010;53.264;6.592;2023-09-18T04:54:32;19.50;99.90
51996;DHT22;38010;53.264;6.592;2023-09-18T04:56:57;19.50;99.90
51996;DHT22;38010;53.264;6.592;2023-09-18T04:59:23;19.50;99.90
51996;DHT22;38010;53.264;6.592;2023-09-18T05:01:48;19.50;99.90
51996;DHT22;38010;53.264;6.592;2023-09-18T05:04:14;19.50;99.90
51996;DHT22;38010;53.264;6.592;2023-09-18T05:06:40;19.50;99.90
51996;DHT22;38010;53.264;6.592;2023-09-18T05:09:07;19.50;99.90
51996;DHT22;38010;53.264;6.592;2023-09-18T05:11:33;19.50;99.90
51996;DHT22;38010;53.264;6.592;2023-09-18T05:13:59;19.50;99.90
51996;DHT22;38010;53.264;6.592;2023-09-18T05:16:25;19.50;99.90
51996;DHT22;38010;53.264;6.592;2023-09-18T05:18:51;19.60;99.90
51996;DHT22;38010;53.264;6.592;2023-09-18T05:21:16;19.60;99.90
51996;DHT22;38010;53.264;6.592;2023-09-18T05:23:47;19.60;99.90
51996;DHT22;38010;53.264;6.592;2023-09-18T05:26:13;19.60;99.90
51996;DHT22;38010;53.264;6.592;2023-09-18T05:28:39;19.60;99.90
51996;DHT22;38010;53.264;6.592;2023-09-18T05:31:04;19.60;99.90
51996;DHT22;38010;53.264;6.592;2023-09-18T05:33:30;19.60;99.90
51996;DHT22;38010;53.264;6.592;2023-09-18T05:35:56;19.60;99.90
51996;DHT22;38010;53.264;6.592;2023-09-18T05:38:21;19.60;99.90
51996;DHT22;38010;53.264;6.592;2023-09-18T05:40:47;19.70;99.90
51996;DHT22;38010;53.264;6.592;2023-09-18T05:43:13;19.60;99.90
51996;DHT22;38010;53.264;6.592;2023-09-18T05:45:39;19.60;99.90
51996;DHT22;38010;53.264;6.592;2023-09-18T05:48:05;19.70;99.90
51996;DHT22;38010;53.264;6.592;2023-09-18T05:50:35;19.70;99.90
51996;DHT22;38010;53.264;6.592;2023-09-18T05:53:01;19.60;99.90
51996;DHT22;38010;53.264;6.592;2023-09-18T05:55:30;19.60;99.90
51996;DHT22;38010;53.264;6.592;2023-09-18T05:57:56;19.70;99.90
51996;DHT22;38010;53.264;6.592;2023-09-18T06:00:23;19.60;99.90
51996;DHT22;38010;53.264;6.592;2023-09-18T06:02:49;19.60;99.90
51996;DHT22;38010;53.264;6.592;2023-09-18T06:05:17;19.60;99.90
51996;DHT22;38010;53.264;6.592;2023-09-18T06:07:43;19.60;99.90
51996;DHT22;38010;53.264;6.592;2023-09-18T06:10:10;19.60;99.90
51996;DHT22;38010;53.264;6.592;2023-09-18T06:12:38;19.50;99.90
51996;DHT22;38010;53.264;6.592;2023-09-18T06:15:07;19.60;99.90
51996;DHT22;38010;53.264;6.592;2023-09-18T06:17:39;19.70;99.90
51996;DHT22;38010;53.264;6.592;2023-09-18T06:20:06;19.60;99.90
51996;DHT22;38010;53.264;6.592;2023-09-18T06:22:39;19.60;99.90
51996;DHT22;38010;53.264;6.592;2023-09-18T06:25:06;19.60;99.90
51996;DHT22;38010;53.264;6.592;2023-09-18T06:27:34;19.60;99.90
51996;DHT22;38010;53.264;6.592;2023-09-18T06:30:00;19.70;99.90
51996;DHT22;38010;53.264;6.592;2023-09-18T06:32:26;19.70;99.90
51996;DHT22;38010;53.264;6.592;2023-09-18T06:34:51;19.70;99.90
51996;DHT22;38010;53.264;6.592;2023-09-18T06:37:17;19.70;99.90
51996;DHT22;38010;53.264;6.592;2023-09-18T06:39:44;19.70;99.90
51996;DHT22;38010;53.264;6.592;2023-09-18T06:42:09;19.70;99.90
51996;DHT22;38010;53.264;6.592;2023-09-18T06:44:35;19.70;99.90
51996;DHT22;38010;53.264;6.592;2023-09-18T06:47:01;19.70;99.90
51996;DHT22;38010;53.264;6.592;2023-09-18T06:49:26;19.60;99.90
51996;DHT22;38010;53.264;6.592;2023-09-18T06:51:53;19.70;99.90
51996;DHT22;38010;53.264;6.592;2023-09-18T06:54:18;19.70;99.90
51996;DHT22;38010;53.264;6.592;2023-09-18T06:56:44;19.70;99.90
51996;DHT22;38010;53.264;6.592;2023-09-18T06:59:10;19.70;99.90
51996;DHT22;38010;53.264;6.592;2023-09-18T07:01:37;19.70;99.90
51996;DHT22;38010;53.264;6.592;2023-09-18T07:04:03;19.70;99.90
51996;DHT22;38010;53.264;6.592;2023-09-18T07:06:30;19.70;99.90
51996;DHT22;38010;53.264;6.592;2023-09-18T07:08:56;19.70;99.90
51996;DHT22;38010;53.264;6.592;2023-09-18T07:11:22;19.70;99.90
51996;DHT22;38010;53.264;6.592;2023-09-18T07:13:47;19.70;99.90
51996;DHT22;38010;53.264;6.592;2023-09-18T07:16:13;19.70;99.90
51996;DHT22;38010;53.264;6.592;2023-09-18T07:18:39;19.70;99.90
51996;DHT22;38010;53.264;6.592;2023-09-18T07:21:05;19.70;99.90
51996;DHT22;38010;53.264;6.592;2023-09-18T07:23:30;19.70;99.90
51996;DHT22;38010;53.264;6.592;2023-09-18T07:25:56;19.70;99.90
51996;DHT22;38010;53.264;6.592;2023-09-18T07:28:24;19.70;99.90
51996;DHT22;38010;53.264;6.592;2023-09-18T07:30:50;19.70;99.90
51996;DHT22;38010;53.264;6.592;2023-09-18T07:33:16;19.70;99.90
51996;DHT22;38010;53.264;6.592;2023-09-18T07:35:48;19.70;99.90
51996;DHT22;38010;53.264;6.592;2023-09-18T07:38:14;19.70;99.90
51996;DHT22;38010;53.264;6.592;2023-09-18T07:40:40;19.70;99.90
51996;DHT22;38010;53.264;6.592;2023-09-18T07:43:06;19.70;99.90
51996;DHT22;38010;53.264;6.592;2023-09-18T07:45:34;19.70;99.90
51996;DHT22;38010;53.264;6.592;2023-09-18T07:47:59;19.70;99.90
51996;DHT22;38010;53.264;6.592;2023-09-18T07:50:25;19.70;99.90
51996;DHT22;38010;53.264;6.592;2023-09-18T07:52:52;19.70;99.90
51996;DHT22;38010;53.264;6.592;2023-09-18T07:55:18;19.70;99.90
51996;DHT22;38010;53.264;6.592;2023-09-18T07:57:43;19.70;99.90
51996;DHT22;38010;53.264;6.592;2023-09-18T08:00:11;19.70;99.90
51996;DHT22;38010;53.264;6.592;2023-09-18T08:02:39;19.70;99.90
51996;DHT22;38010;53.264;6.592;2023-09-18T08:05:05;19.70;99.90
51996;DHT22;38010;53.264;6.592;2023-09-18T08:07:31;19.70;99.90
51996;DHT22;38010;53.264;6.592;2023-09-18T08:09:57;19.70;99.90
51996;DHT22;38010;53.264;6.592;2023-09-18T08:12:23;19.70;99.90
51996;DHT22;38010;53.264;6.592;2023-09-18T08:14:49;19.70;99.90
51996;DHT22;38010;53.264;6.592;2023-09-18T08:17:16;19.70;99.90
51996;DHT22;38010;53.264;6.592;2023-09-18T08:19:42;19.70;99.90
51996;DHT22;38010;53.264;6.592;2023-09-18T08:22:09;19.70;99.90
51996;DHT22;38010;53.264;6.592;2023-09-18T08:24:37;19.70;99.90
51996;DHT22;38010;53.264;6.592;2023-09-18T08:27:03;19.70;99.90
51996;DHT22;38010;53.264;6.592;2023-09-18T08:29:29;19.70;99.90
51996;DHT22;38010;53.264;6.592;2023-09-18T08:31:54;19.70;99.90
51996;DHT22;38010;53.264;6.592;2023-09-18T08:34:20;19.70;99.90
51996;DHT22;38010;53.264;6.592;2023-09-18T08:36:46;19.70;99.90
51996;DHT22;38010;53.264;6.592;2023-09-18T08:39:11;19.70;99.90
51996;DHT22;38010;53.264;6.592;2023-09-18T08:41:42;19.70;99.90
51996;DHT22;38010;53.264;6.592;2023-09-18T08:44:09;19.70;99.90
51996;DHT22;38010;53.264;6.592;2023-09-18T08:46:36;19.70;99.90
51996;DHT22;38010;53.264;6.592;2023-09-18T08:49:03;19.70;99.90
51996;DHT22;38010;53.264;6.592;2023-09-18T08:51:29;19.80;99.90
51996;DHT22;38010;53.264;6.592;2023-09-18T08:53:56;19.70;99.90
51996;DHT22;38010;53.264;6.592;2023-09-18T08:56:22;19.80;99.90
51996;DHT22;38010;53.264;6.592;2023-09-18T08:58:49;19.80;99.90
51996;DHT22;38010;53.264;6.592;2023-09-18T09:01:15;19.70;99.90
51996;DHT22;38010;53.264;6.592;2023-09-18T09:03:41;19.80;99.90
51996;DHT22;38010;53.264;6.592;2023-09-18T09:06:09;19.70;99.90
51996;DHT22;38010;53.264;6.592;2023-09-18T09:08:36;19.70;99.90
51996;DHT22;38010;53.264;6.592;2023-09-18T09:11:02;19.80;99.90
51996;DHT22;38010;53.264;6.592;2023-09-18T09:13:28;19.80;99.90
51996;DHT22;38010;53.264;6.592;2023-09-18T09:15:56;19.80;99.90
51996;DHT22;38010;53.264;6.592;2023-09-18T09:18:27;19.80;99.90
51996;DHT22;38010;53.264;6.592;2023-09-18T09:20:58;19.80;99.90
51996;DHT22;38010;53.264;6.592;2023-09-18T09:23:26;19.80;99.90
51996;DHT22;38010;53.264;6.592;2023-09-18T09:25:52;19.80;99.90
51996;DHT22;38010;53.264;6.592;2023-09-18T09:28:29;19.80;99.90
51996;DHT22;38010;53.264;6.592;2023-09-18T09:31:02;19.80;99.90
51996;DHT22;38010;53.264;6.592;2023-09-18T09:33:29;19.80;99.90
51996;DHT22;38010;53.264;6.592;2023-09-18T09:35:56;19.80;99.90
51996;DHT22;38010;53.264;6.592;2023-09-18T09:38:28;19.80;99.90
51996;DHT22;38010;53.264;6.592;2023-09-18T09:40:57;19.80;99.90
51996;DHT22;38010;53.264;6.592;2023-09-18T09:43:26;19.80;99.90
51996;DHT22;38010;53.264;6.592;2023-09-18T09:45:57;19.80;99.90
51996;DHT22;38010;53.264;6.592;2023-09-18T09:48:24;19.80;99.90
51996;DHT22;38010;53.264;6.592;2023-09-18T09:50:58;19.80;99.90
51996;DHT22;38010;53.264;6.592;2023-09-18T09:53:47;19.80;99.90
51996;DHT22;38010;53.264;6.592;2023-09-18T09:56:14;19.80;99.90
51996;DHT22;38010;53.264;6.592;2023-09-18T09:59:14;19.80;99.90
51996;DHT22;38010;53.264;6.592;2023-09-18T10:01:40;19.80;99.90
51996;DHT22;38010;53.264;6.592;2023-09-18T10:04:13;19.80;99.90
51996;DHT22;38010;53.264;6.592;2023-09-18T10:06:43;19.90;99.90
51996;DHT22;38010;53.264;6.592;2023-09-18T10:09:11;19.80;99.90
51996;DHT22;38010;53.264;6.592;2023-09-18T10:11:42;19.90;99.90
51996;DHT22;38010;53.264;6.592;2023-09-18T10:14:15;19.90;99.90
51996;DHT22;38010;53.264;6.592;2023-09-18T10:16:45;19.90;99.90
51996;DHT22;38010;53.264;6.592;2023-09-18T10:19:28;19.90;99.90
51996;DHT22;38010;53.264;6.592;2023-09-18T10:22:11;19.90;99.90
51996;DHT22;38010;53.264;6.592;2023-09-18T10:24:41;19.90;99.90
51996;DHT22;38010;53.264;6.592;2023-09-18T10:27:07;19.90;99.90
51996;DHT22;38010;53.264;6.592;2023-09-18T10:29:36;19.90;99.90
51996;DHT22;38010;53.264;6.592;2023-09-18T10:32:06;19.90;99.90
51996;DHT22;38010;53.264;6.592;2023-09-18T10:34:35;20.00;99.90
51996;DHT22;38010;53.264;6.592;2023-09-18T10:37:03;20.00;99.90
51996;DHT22;38010;53.264;6.592;2023-09-18T10:39:37;19.90;99.90
51996;DHT22;38010;53.264;6.592;2023-09-18T10:42:10;20.00;99.90
51996;DHT22;38010;53.264;6.592;2023-09-18T10:44:37;20.00;99.90
51996;DHT22;38010;53.264;6.592;2023-09-18T10:47:08;20.00;99.90
51996;DHT22;38010;53.264;6.592;2023-09-18T10:49:35;20.00;99.90
51996;DHT22;38010;53.264;6.592;2023-09-18T10:52:02;20.00;99.90
51996;DHT22;38010;53.264;6.592;2023-09-18T10:54:30;20.00;99.90
51996;DHT22;38010;53.264;6.592;2023-09-18T10:56:57;20.00;99.90
51996;DHT22;38010;53.264;6.592;2023-09-18T10:59:23;20.00;99.90
51996;DHT22;38010;53.264;6.592;2023-09-18T11:01:49;20.00;99.90
51996;DHT22;38010;53.264;6.592;2023-09-18T11:04:18;20.10;99.90
51996;DHT22;38010;53.264;6.592;2023-09-18T11:09:41;20.10;99.90
51996;DHT22;38010;53.264;6.592;2023-09-18T11:12:09;20.10;99.90
51996;DHT22;38010;53.264;6.592;2023-09-18T11:15:01;20.10;99.90
51996;DHT22;38010;53.264;6.592;2023-09-18T11:17:31;20.10;99.90
51996;DHT22;38010;53.264;6.592;2023-09-18T11:22:49;20.10;99.90
51996;DHT22;38010;53.264;6.592;2023-09-18T11:28:15;20.10;99.90
51996;DHT22;38010;53.264;6.592;2023-09-18T11:30:55;20.10;99.90
51996;DHT22;38010;53.264;6.592;2023-09-18T11:33:39;20.10;99.90
51996;DHT22;38010;53.264;6.592;2023-09-18T11:38:56;20.10;99.90
51996;DHT22;38010;53.264;6.592;2023-09-18T11:43:51;20.10;99.90
51996;DHT22;38010;53.264;6.592;2023-09-18T11:46:22;20.20;99.90
51996;DHT22;38010;53.264;6.592;2023-09-18T11:48:48;20.20;99.90
51996;DHT22;38010;53.264;6.592;2023-09-18T11:51:23;20.20;99.90
51996;DHT22;38010;53.264;6.592;2023-09-18T11:53:53;20.20;99.90
51996;DHT22;38010;53.264;6.592;2023-09-18T11:56:19;20.20;99.90
51996;DHT22;38010;53.264;6.592;2023-09-18T11:58:46;20.20;99.90
51996;DHT22;38010;53.264;6.592;2023-09-18T12:01:13;20.20;99.90
51996;DHT22;38010;53.264;6.592;2023-09-18T12:03:41;20.30;99.90
51996;DHT22;38010;53.264;6.592;2023-09-18T12:06:07;20.20;99.90
51996;DHT22;38010;53.264;6.592;2023-09-18T12:08:39;20.30;99.90
51996;DHT22;38010;53.264;6.592;2023-09-18T12:11:06;20.30;99.90
51996;DHT22;38010;53.264;6.592;2023-09-18T12:13:32;20.30;99.90
51996;DHT22;38010;53.264;6.592;2023-09-18T12:16:02;20.20;99.90
51996;DHT22;38010;53.264;6.592;2023-09-18T12:18:31;20.30;99.90
51996;DHT22;38010;53.264;6.592;2023-09-18T12:20:58;20.20;99.90
51996;DHT22;38010;53.264;6.592;2023-09-18T12:23:26;20.30;99.90
51996;DHT22;38010;53.264;6.592;2023-09-18T12:26:00;20.30;99.90
51996;DHT22;38010;53.264;6.592;2023-09-18T12:28:27;20.30;99.90
51996;DHT22;38010;53.264;6.592;2023-09-18T12:30:54;20.30;99.90
51996;DHT22;38010;53.264;6.592;2023-09-18T12:33:22;20.30;99.90
51996;DHT22;38010;53.264;6.592;2023-09-18T12:35:49;20.30;99.90
51996;DHT22;38010;53.264;6.592;2023-09-18T12:38:18;20.30;99.90
51996;DHT22;38010;53.264;6.592;2023-09-18T12:40:52;20.30;99.90
51996;DHT22;38010;53.264;6.592;2023-09-18T12:43:18;20.30;99.90
51996;DHT22;38010;53.264;6.592;2023-09-18T12:45:45;20.40;99.90
51996;DHT22;38010;53.264;6.592;2023-09-18T12:48:13;20.40;99.90
51996;DHT22;38010;53.264;6.592;2023-09-18T12:50:39;20.40;99.90
51996;DHT22;38010;53.264;6.592;2023-09-18T12:53:12;20.40;99.90
51996;DHT22;38010;53.264;6.592;2023-09-18T12:55:39;20.40;99.90
51996;DHT22;38010;53.264;6.592;2023-09-18T12:58:06;20.40;99.90
51996;DHT22;38010;53.264;6.592;2023-09-18T13:00:35;20.30;99.90
51996;DHT22;38010;53.264;6.592;2023-09-18T13:03:03;20.30;99.90
51996;DHT22;38010;53.264;6.592;2023-09-18T13:05:30;20.30;99.90
51996;DHT22;38010;53.264;6.592;2023-09-18T13:08:05;20.30;99.90
51996;DHT22;38010;53.264;6.592;2023-09-18T13:10:44;20.30;99.90
51996;DHT22;38010;53.264;6.592;2023-09-18T13:13:18;20.40;99.90
51996;DHT22;38010;53.264;6.592;2023-09-18T13:15:44;20.40;99.90
51996;DHT22;38010;53.264;6.592;2023-09-18T13:18:14;20.50;99.90
51996;DHT22;38010;53.264;6.592;2023-09-18T13:20:40;20.50;99.90
51996;DHT22;38010;53.264;6.592;2023-09-18T13:23:06;20.50;99.90
51996;DHT22;38010;53.264;6.592;2023-09-18T13:25:34;20.50;99.90
51996;DHT22;38010;53.264;6.592;2023-09-18T13:28:01;20.50;99.90
51996;DHT22;38010;53.264;6.592;2023-09-18T13:30:30;20.50;99.90
51996;DHT22;38010;53.264;6.592;2023-09-18T13:33:13;20.60;99.90
51996;DHT22;38010;53.264;6.592;2023-09-18T13:35:42;20.60;99.90
51996;DHT22;38010;53.264;6.592;2023-09-18T13:38:09;20.70;99.90
51996;DHT22;38010;53.264;6.592;2023-09-18T13:40:46;20.80;99.90
51996;DHT22;38010;53.264;6.592;2023-09-18T13:43:13;20.80;99.90
51996;DHT22;38010;53.264;6.592;2023-09-18T13:45:44;21.10;99.90
51996;DHT22;38010;53.264;6.592;2023-09-18T13:48:10;21.00;99.90
51996;DHT22;38010;53.264;6.592;2023-09-18T13:50:36;21.10;99.90
51996;DHT22;38010;53.264;6.592;2023-09-18T13:53:03;21.10;99.90
51996;DHT22;38010;53.264;6.592;2023-09-18T13:55:33;21.10;99.90
51996;DHT22;38010;53.264;6.592;2023-09-18T13:57:59;21.20;99.90
51996;DHT22;38010;53.264;6.592;2023-09-18T14:00:25;21.20;99.90
51996;DHT22;38010;53.264;6.592;2023-09-18T14:02:52;21.20;99.90
51996;DHT22;38010;53.264;6.592;2023-09-18T14:05:17;21.20;99.90
51996;DHT22;38010;53.264;6.592;2023-09-18T14:07:45;21.30;99.90
51996;DHT22;38010;53.264;6.592;2023-09-18T14:12:38;21.30;99.90
51996;DHT22;38010;53.264;6.592;2023-09-18T14:15:08;21.40;99.90
51996;DHT22;38010;53.264;6.592;2023-09-18T14:17:34;21.40;99.90
51996;DHT22;38010;53.264;6.592;2023-09-18T14:20:00;21.40;99.90
51996;DHT22;38010;53.264;6.592;2023-09-18T14:22:26;21.30;99.90
51996;DHT22;38010;53.264;6.592;2023-09-18T14:24:52;21.30;99.90
51996;DHT22;38010;53.264;6.592;2023-09-18T14:27:18;21.30;99.90
51996;DHT22;38010;53.264;6.592;2023-09-18T14:29:44;21.20;99.90
51996;DHT22;38010;53.264;6.592;2023-09-18T14:32:10;21.10;99.90
51996;DHT22;38010;53.264;6.592;2023-09-18T14:34:37;21.10;99.90
51996;DHT22;38010;53.264;6.592;2023-09-18T14:37:03;21.10;99.90
51996;DHT22;38010;53.264;6.592;2023-09-18T14:39:32;21.00;99.90
51996;DHT22;38010;53.264;6.592;2023-09-18T14:41:58;21.10;99.90
51996;DHT22;38010;53.264;6.592;2023-09-18T14:44:26;21.10;99.90
51996;DHT22;38010;53.264;6.592;2023-09-18T14:46:53;21.10;99.90
51996;DHT22;38010;53.264;6.592;2023-09-18T14:49:19;21.10;99.90
51996;DHT22;38010;53.264;6.592;2023-09-18T14:51:45;21.10;99.90
51996;DHT22;38010;53.264;6.592;2023-09-18T14:54:11;21.10;99.90
51996;DHT22;38010;53.264;6.592;2023-09-18T14:56:37;21.00;99.90
51996;DHT22;38010;53.264;6.592;2023-09-18T14:59:06;21.00;99.90
51996;DHT22;38010;53.264;6.592;2023-09-18T15:01:33;21.00;99.90
51996;DHT22;38010;53.264;6.592;2023-09-18T15:03:59;20.90;99.90
51996;DHT22;38010;53.264;6.592;2023-09-18T15:06:25;20.90;99.90
51996;DHT22;38010;53.264;6.592;2023-09-18T15:08:52;20.90;99.90
51996;DHT22;38010;53.264;6.592;2023-09-18T15:11:18;21.00;99.90
51996;DHT22;38010;53.264;6.592;2023-09-18T15:13:45;21.10;99.90
51996;DHT22;38010;53.264;6.592;2023-09-18T15:16:11;21.10;99.90
51996;DHT22;38010;53.264;6.592;2023-09-18T15:18:37;21.10;99.90
51996;DHT22;38010;53.264;6.592;2023-09-18T15:21:03;21.20;99.90
51996;DHT22;38010;53.264;6.592;2023-09-18T15:23:29;21.20;99.90
51996;DHT22;38010;53.264;6.592;2023-09-18T15:25:57;21.30;99.90
51996;DHT22;38010;53.264;6.592;2023-09-18T15:28:24;21.40;99.90
51996;DHT22;38010;53.264;6.592;2023-09-18T15:30:53;21.40;99.90
51996;DHT22;38010;53.264;6.592;2023-09-18T15:33:19;21.50;99.90
51996;DHT22;38010;53.264;6.592;2023-09-18T15:35:48;21.60;99.90
51996;DHT22;38010;53.264;6.592;2023-09-18T15:38:14;21.70;99.90
51996;DHT22;38010;53.264;6.592;2023-09-18T15:40:40;21.70;99.90
51996;DHT22;38010;53.264;6.592;2023-09-18T15:43:06;21.80;99.90
51996;DHT22;38010;53.264;6.592;2023-09-18T15:45:32;21.80;99.90
51996;DHT22;38010;53.264;6.592;2023-09-18T15:48:01;21.80;99.90
51996;DHT22;38010;53.264;6.592;2023-09-18T15:50:27;21.90;99.90